Time;durP1;ratioP1;P1;durP2;ratioP2;P2;SDS_P1;SDS_P2;PMS_P1;PMS_P2;Temp;Humidity;BMP_temperature;BMP_pressure;BME280_temperature;BME280_humidity;BME280_pressure;Samples;Min_cycle;Max_cycle;Signal;HPM_P1;HPM_P2
2022/12/14 00:00:55;;;;;;;;;;;;;;;6.66;91.99;98224.06;6246151;23;20001;-87
2022/12/14 00:03:21;;;;;;;;;;;;;;;6.65;92.01;98222.38;6194393;23;20005;-84
2022/12/14 00:05:46;;;;;;;;;;;;;;;6.66;91.83;98213.53;6246334;23;19919;-82
2022/12/14 00:08:13;;;;;;;;;;;;;;;6.66;91.88;98213.53;6246259;23;19923;-84
2022/12/14 00:10:38;;;;;;;;;;;;;;;6.68;92.20;98208.19;6219294;23;19911;-84
2022/12/14 00:13:04;;;;;;;;;;;;;;;6.67;92.29;98207.34;6244910;23;19919;-82
2022/12/14 00:15:31;;;;;;;;;;;;;;;6.68;92.39;98198.50;6246448;23;19986;-83
2022/12/14 00:17:56;;;;;;;;;;;;;;;6.67;92.02;98199.47;6246005;23;19918;-83
2022/12/14 00:20:22;;;;;;;;;;;;;;;6.69;92.35;98207.28;6246159;23;19916;-82
2022/12/14 00:22:47;;;;;;;;;;;;;;;6.69;92.21;98197.59;6246307;23;19915;-82
2022/12/14 00:25:13;;;;;;;;;;;;;;;6.71;92.33;98202.78;6246159;23;19911;-84
2022/12/14 00:27:42;;;;;;;;;;;;;;;6.69;92.25;98205.50;6244364;23;19911;-82
2022/12/14 00:30:08;;;;;;;;;;;;;;;6.70;92.59;98194.03;6246576;23;19937;-83
2022/12/14 00:32:33;;;;;;;;;;;;;;;6.70;92.45;98211.59;6246182;23;19911;-85
2022/12/14 00:35:00;;;;;;;;;;;;;;;6.70;92.29;98220.38;6246109;23;19994;-83
2022/12/14 00:37:25;;;;;;;;;;;;;;;6.70;92.54;98225.63;6245971;23;20327;-83
2022/12/14 00:39:50;;;;;;;;;;;;;;;6.70;92.56;98219.50;6246038;23;19986;-83
2022/12/14 00:42:16;;;;;;;;;;;;;;;6.71;92.87;98222.03;6217379;23;20022;-85
2022/12/14 03:12:12;;;;;;;;;;;;;;;6.73;91.71;98103.50;6263478;22;20281;-83
2022/12/14 03:14:41;;;;;;;;;;;;;;;6.73;92.00;98090.34;6278533;22;19923;-83
2022/12/14 03:17:10;;;;;;;;;;;;;;;6.73;92.14;98091.22;6251845;22;20002;-83
2022/12/14 03:19:51;;;;;;;;;;;;;;;6.74;92.45;98084.16;6278322;22;20293;-83
2022/12/14 03:22:23;;;;;;;;;;;;;;;6.73;92.20;98091.22;6278384;22;19957;-85
2022/12/14 03:24:51;;;;;;;;;;;;;;;6.72;92.06;98097.41;6277362;22;19911;-85
2022/12/14 03:27:19;;;;;;;;;;;;;;;6.73;92.30;98098.25;6276737;22;19916;-86
2022/12/14 03:29:47;;;;;;;;;;;;;;;6.74;92.83;98102.59;6278346;22;20234;-85
2022/12/14 03:32:15;;;;;;;;;;;;;;;6.74;92.39;98102.59;6251104;22;19936;-87
2022/12/14 03:34:44;;;;;;;;;;;;;;;6.73;92.50;98098.25;6278316;22;20277;-89
2022/12/14 03:37:11;;;;;;;;;;;;;;;6.71;92.23;98100.97;6278333;22;19915;-89
2022/12/14 03:39:39;;;;;;;;;;;;;;;6.75;92.33;98113.97;6251065;22;19918;-84
2022/12/14 03:42:14;;;;;;;;;;;;;;;6.74;92.69;98115.75;6276561;22;19911;-85
2022/12/14 03:44:45;;;;;;;;;;;;;;;6.73;92.53;98112.28;6278043;22;19915;-85
2022/12/14 03:47:48;;;;;;;;;;;;;;;6.74;92.52;98099.97;6278222;22;19914;-88
2022/12/14 03:50:16;;;;;;;;;;;;;;;6.73;92.58;98090.34;6278020;22;19916;-88
2022/12/14 03:52:55;;;;;;;;;;;;;;;6.75;92.91;98090.25;6277979;22;20239;-88
2022/12/14 03:55:32;;;;;;;;;;;;;;;6.76;92.82;98091.97;6276672;22;19910;-88
2022/12/14 03:58:06;;;;;;;;;;;;;;;6.75;92.70;98085.00;6278206;22;19998;-91
2022/12/14 04:00:38;;;;;;;;;;;;;;;6.75;93.02;98079.75;6277971;22;20330;-87
2022/12/14 04:03:18;;;;;;;;;;;;;;;6.75;93.28;98070.09;6278066;22;19965;-90
2022/12/14 04:05:55;;;;;;;;;;;;;;;6.77;93.36;98067.38;6276528;22;19969;-90
2022/12/14 04:08:34;;;;;;;;;;;;;;;6.77;93.41;98060.31;6278088;22;19911;-88
2022/12/14 04:19:28;;;;;;;;;;;;;;;6.76;93.76;98042.81;6247487;23;20290;-90
2022/12/14 04:22:01;;;;;;;;;;;;;;;6.77;93.63;98035.78;6247241;23;19912;-87
2022/12/14 04:27:33;;;;;;;;;;;;;;;6.77;93.59;98047.16;6245548;23;19915;-88
2022/12/14 04:30:00;;;;;;;;;;;;;;;6.80;93.77;98067.19;6247081;23;19911;-89
2022/12/14 04:32:25;;;;;;;;;;;;;;;6.80;94.00;98056.66;6246947;23;19911;-89
2022/12/14 04:34:55;;;;;;;;;;;;;;;6.82;94.56;98050.38;6220503;23;19990;-91
2022/12/14 04:37:22;;;;;;;;;;;;;;;6.80;94.39;98065.41;6247060;23;19916;-89
2022/12/14 08:50:37;;;;;;;;;;;;;;;6.80;100.00;97951.38;6242643;23;20350;-83
2022/12/14 08:53:02;;;;;;;;;;;;;;;6.80;100.00;97952.22;6208283;23;19915;-90
2022/12/14 08:55:27;;;;;;;;;;;;;;;6.81;100.00;97947.78;6245067;23;20373;-86
2022/12/14 08:57:52;;;;;;;;;;;;;;;6.79;100.00;97950.50;6218111;23;19966;-87
2022/12/14 09:00:18;;;;;;;;;;;;;;;6.80;100.00;97946.94;6218638;23;20307;-84
2022/12/14 09:02:43;;;;;;;;;;;;;;;6.81;100.00;97950.41;6211701;23;19965;-90
2022/12/14 09:05:09;;;;;;;;;;;;;;;6.77;100.00;97939.22;6219682;23;19911;-89
2022/12/14 09:07:34;;;;;;;;;;;;;;;6.77;100.00;97943.66;6245446;23;19939;-86
2022/12/14 09:10:00;;;;;;;;;;;;;;;6.80;100.00;97940.84;6246291;23;19911;-85
2022/12/14 09:12:27;;;;;;;;;;;;;;;6.80;100.00;97951.38;6245793;23;19911;-84
2022/12/14 09:14:52;;;;;;;;;;;;;;;6.80;100.00;97946.09;6245431;23;19922;-86
2022/12/14 09:17:18;;;;;;;;;;;;;;;6.75;100.00;97949.00;6245126;23;19943;-88
2022/12/14 09:19:43;;;;;;;;;;;;;;;6.79;100.00;97949.66;6219530;23;19970;-91
2022/12/14 09:22:08;;;;;;;;;;;;;;;6.80;100.00;97959.25;6219974;23;19935;-89
2022/12/14 09:24:34;;;;;;;;;;;;;;;6.80;100.00;97956.63;6245361;23;19935;-89
2022/12/14 09:27:00;;;;;;;;;;;;;;;6.78;100.00;97950.59;6246026;23;19983;-89
2022/12/14 09:29:25;;;;;;;;;;;;;;;6.78;100.00;97947.94;6245117;23;19986;-85
2022/12/14 09:31:51;;;;;;;;;;;;;;;6.80;100.00;97972.44;6245162;23;20304;-83
2022/12/14 09:34:16;;;;;;;;;;;;;;;6.80;100.00;97977.69;6244992;23;19918;-86
2022/12/14 09:36:41;;;;;;;;;;;;;;;6.79;100.00;97973.34;6246353;23;19911;-85
2022/12/14 09:39:06;;;;;;;;;;;;;;;6.80;100.00;97972.44;6245575;23;19922;-86
2022/12/14 09:41:32;;;;;;;;;;;;;;;6.82;100.00;97978.44;6244263;23;20315;-86
2022/12/14 09:43:57;;;;;;;;;;;;;;;6.80;100.00;97978.53;6246559;23;19912;-85
2022/12/14 09:46:46;;;;;;;;;;;;;;;6.81;100.00;97992.53;6244974;23;20216;-87
2022/12/14 09:49:24;;;;;;;;;;;;;;;6.81;100.00;97987.28;6244169;22;19915;-89
2022/12/14 09:51:50;;;;;;;;;;;;;;;6.80;100.00;97994.31;6245662;23;19912;-90
2022/12/14 09:54:17;;;;;;;;;;;;;;;6.79;100.00;97992.63;6246019;23;19974;-88
2022/12/14 09:56:43;;;;;;;;;;;;;;;6.81;100.00;97982.00;6246428;23;20327;-84
2022/12/14 09:59:11;;;;;;;;;;;;;;;6.78;100.00;97976.91;6218105;23;19915;-88
2022/12/14 10:01:52;;;;;;;;;;;;;;;6.82;100.00;97986.34;6219382;23;19912;-90
2022/12/14 10:04:33;;;;;;;;;;;;;;;6.81;100.00;97974.09;6218641;23;19943;-92
2022/12/14 10:07:14;;;;;;;;;;;;;;;6.80;100.00;97983.78;6219818;23;19908;-91
2022/12/14 10:09:47;;;;;;;;;;;;;;;6.81;100.00;97984.63;6246721;23;19951;-87
2022/12/14 10:12:24;;;;;;;;;;;;;;;6.81;100.00;97989.91;6219753;23;19998;-87
2022/12/14 10:15:04;;;;;;;;;;;;;;;6.79;100.00;97992.63;6247022;23;19954;-87
2022/12/14 10:17:48;;;;;;;;;;;;;;;6.79;100.00;98000.50;6244732;23;20335;-88
2022/12/14 10:20:13;;;;;;;;;;;;;;;6.80;100.00;98010.13;6246418;23;19908;-89
2022/12/14 10:22:43;;;;;;;;;;;;;;;6.82;100.00;98000.34;6246365;23;20346;-93
2022/12/14 10:25:14;;;;;;;;;;;;;;;6.80;100.00;97999.59;6246462;23;19912;-89
2022/12/14 10:27:40;;;;;;;;;;;;;;;6.81;100.00;97997.78;6246479;23;20354;-91
2022/12/14 10:30:16;;;;;;;;;;;;;;;6.82;100.00;98000.34;6246026;23;19915;-91
2022/12/14 10:32:51;;;;;;;;;;;;;;;6.84;100.00;97995.00;6244942;23;20324;-85
2022/12/14 10:35:17;;;;;;;;;;;;;;;6.84;100.00;97981.84;6219574;23;19918;-91
2022/12/14 10:37:44;;;;;;;;;;;;;;;6.83;100.00;97978.34;6246404;23;19916;-93
2022/12/14 10:40:09;;;;;;;;;;;;;;;6.84;100.00;97979.19;6246536;23;19912;-85
2022/12/14 10:42:50;;;;;;;;;;;;;;;6.83;100.00;97970.47;6219706;23;20277;-92
2022/12/14 10:45:15;;;;;;;;;;;;;;;6.84;100.00;97976.56;6246422;23;19969;-92
2022/12/14 10:47:43;;;;;;;;;;;;;;;6.83;100.00;97966.97;6218035;23;19916;-91
2022/12/14 10:50:27;;;;;;;;;;;;;;;6.84;100.00;97973.94;6246532;22;19915;-93
2022/12/14 10:52:53;;;;;;;;;;;;;;;6.83;100.00;97970.47;6246306;23;19911;-90
2022/12/14 10:55:21;;;;;;;;;;;;;;;6.83;100.00;97973.09;6246159;23;19918;-87
2022/12/14 10:57:46;;;;;;;;;;;;;;;6.85;100.00;97965.13;6246390;23;19995;-89
2022/12/14 11:00:14;;;;;;;;;;;;;;;6.85;100.00;97975.66;6246328;23;19951;-90
2022/12/14 11:02:41;;;;;;;;;;;;;;;6.83;100.00;97980.13;6244412;23;19918;-85
2022/12/14 11:05:22;;;;;;;;;;;;;;;6.85;100.00;97986.19;6246094;23;20339;-90
2022/12/14 11:07:48;;;;;;;;;;;;;;;6.85;100.00;97986.19;6246019;23;20014;-87
2022/12/14 11:10:24;;;;;;;;;;;;;;;6.86;100.00;97987.84;6246193;23;19911;-90
2022/12/14 11:12:56;;;;;;;;;;;;;;;6.86;100.00;97983.47;6246395;23;19954;-88
2022/12/14 11:15:24;;;;;;;;;;;;;;;6.85;100.00;97984.38;6246079;23;19912;-86
2022/12/14 11:17:59;;;;;;;;;;;;;;;6.85;100.00;97981.75;6244464;23;19911;-87
2022/12/14 11:20:24;;;;;;;;;;;;;;;6.85;100.00;97992.28;6246860;23;19911;-89
2022/12/14 11:22:51;;;;;;;;;;;;;;;6.84;100.00;97980.03;6221075;23;19918;-86
2022/12/14 11:25:34;;;;;;;;;;;;;;;6.85;100.00;97986.19;6247908;23;20324;-89
2022/12/14 11:28:02;;;;;;;;;;;;;;;6.85;100.00;97968.59;6248008;23;19911;-86
2022/12/14 11:30:28;;;;;;;;;;;;;;;6.85;100.00;97983.53;6247965;23;19918;-86
2022/12/14 11:32:53;;;;;;;;;;;;;;;6.87;100.00;97976.41;6246662;23;20284;-90
2022/12/14 11:35:19;;;;;;;;;;;;;;;6.85;100.00;97976.47;6248486;23;19934;-90
2022/12/14 11:37:47;;;;;;;;;;;;;;;6.88;100.00;97975.47;6248127;23;19916;-90
2022/12/14 11:40:18;;;;;;;;;;;;;;;6.88;100.00;97975.47;6247625;23;19916;-89
2022/12/14 11:42:48;;;;;;;;;;;;;;;6.87;100.00;97977.22;6248231;23;19912;-88
2022/12/14 11:45:22;;;;;;;;;;;;;;;6.88;100.00;97972.84;6247775;23;19911;-90
2022/12/14 11:48:07;;;;;;;;;;;;;;;6.89;100.00;97963.97;6246220;23;20328;-90
2022/12/14 11:50:32;;;;;;;;;;;;;;;6.89;100.00;97963.97;6220373;23;19938;-89
2022/12/14 11:53:03;;;;;;;;;;;;;;;6.90;100.00;97977.06;6247732;23;19911;-87
2022/12/14 11:55:29;;;;;;;;;;;;;;;6.89;100.00;97972.75;6247805;23;19914;-88
2022/12/14 11:57:56;;;;;;;;;;;;;;;6.89;100.00;97974.50;6247581;23;20267;-90
2022/12/14 12:00:26;;;;;;;;;;;;;;;6.90;100.00;97974.44;6220999;23;19915;-89
2022/12/14 12:02:54;;;;;;;;;;;;;;;6.90;100.00;97984.97;6245877;23;19912;-87
2022/12/14 12:05:21;;;;;;;;;;;;;;;6.90;100.00;97982.31;6247913;23;19994;-91
2022/12/14 12:07:49;;;;;;;;;;;;;;;6.88;100.00;97980.75;6247534;23;19973;-88
2022/12/14 12:10:17;;;;;;;;;;;;;;;6.90;100.00;97984.97;6247890;23;20343;-85
2022/12/14 12:13:03;;;;;;;;;;;;;;;6.91;100.00;97985.84;6247583;23;19911;-86
2022/12/14 12:15:39;;;;;;;;;;;;;;;6.93;100.00;97980.47;6247376;23;19958;-86
2022/12/14 12:18:12;;;;;;;;;;;;;;;6.91;100.00;97984.03;6219415;23;19920;-87
2022/12/14 12:20:46;;;;;;;;;;;;;;;6.94;100.00;97995.31;6247468;23;19919;-87
2022/12/14 12:23:16;;;;;;;;;;;;;;;6.92;100.00;97990.16;6220641;23;19973;-84
2022/12/14 12:25:42;;;;;;;;;;;;;;;6.91;100.00;97991.94;6247712;23;19911;-86
2022/12/14 12:28:16;;;;;;;;;;;;;;;6.92;100.00;97998.03;6220595;23;19916;-90
2022/12/14 12:30:44;;;;;;;;;;;;;;;6.91;100.00;97988.47;6247255;23;19965;-87
2022/12/14 12:33:18;;;;;;;;;;;;;;;6.93;100.00;97993.66;6218894;23;19911;-88
2022/12/14 12:35:52;;;;;;;;;;;;;;;6.94;100.00;97992.69;6220621;23;20006;-89
2022/12/14 12:38:23;;;;;;;;;;;;;;;6.93;100.00;97988.38;6213926;23;19926;-89
2022/12/14 12:40:53;;;;;;;;;;;;;;;6.92;100.00;97984.88;6220283;23;19911;-88
2022/12/14 12:43:34;;;;;;;;;;;;;;;6.94;100.00;97983.03;6247300;23;19950;-86
2022/12/14 12:46:04;;;;;;;;;;;;;;;6.95;100.00;97981.22;6213693;23;20224;-87
2022/12/14 12:48:37;;;;;;;;;;;;;;;6.94;100.00;97985.66;6218538;22;20323;-85
2022/12/14 12:51:14;;;;;;;;;;;;;;;6.95;100.00;97982.06;6220449;23;19911;-86
2022/12/14 12:53:55;;;;;;;;;;;;;;;6.94;100.00;97980.41;6219200;23;20375;-86
2022/12/14 12:56:32;;;;;;;;;;;;;;;6.95;100.00;97992.59;6219106;23;20328;-84
2022/12/14 12:58:59;;;;;;;;;;;;;;;6.95;100.00;97983.88;6219167;23;19912;-87
2022/12/14 13:01:27;;;;;;;;;;;;;;;6.97;100.00;97980.19;6219007;23;19911;-85
2022/12/14 13:03:55;;;;;;;;;;;;;;;6.97;100.00;97988.09;6217286;23;19915;-88
2022/12/14 13:06:23;;;;;;;;;;;;;;;6.98;100.00;97994.22;6245932;23;19918;-85
2022/12/14 13:08:56;;;;;;;;;;;;;;;6.98;100.00;98002.13;6245645;23;19911;-88
2022/12/14 13:11:37;;;;;;;;;;;;;;;6.98;100.00;98008.22;6219147;23;19912;-87
2022/12/14 13:14:09;;;;;;;;;;;;;;;6.99;100.00;98009.06;6218858;23;19915;-88
2022/12/14 13:16:37;;;;;;;;;;;;;;;6.99;100.00;98012.56;6218822;23;19946;-89
2022/12/14 13:19:15;;;;;;;;;;;;;;;7.00;100.00;98016.03;6244010;23;19966;-86
2022/12/14 13:21:46;;;;;;;;;;;;;;;7.00;100.00;98024.78;6245564;23;19911;-87
2022/12/14 13:24:32;;;;;;;;;;;;;;;6.99;100.00;98017.84;6245508;23;19919;-90
2022/12/14 13:27:17;;;;;;;;;;;;;;;7.00;100.00;98031.84;6218980;23;19911;-87
2022/12/14 13:30:03;;;;;;;;;;;;;;;6.99;100.00;98031.00;6218465;23;19919;-88
2022/12/14 13:32:46;;;;;;;;;;;;;;;7.01;100.00;98033.56;6244142;23;19919;-89
2022/12/14 13:35:31;;;;;;;;;;;;;;;7.01;100.00;98030.94;6245625;23;19912;-92
2022/12/14 13:37:57;;;;;;;;;;;;;;;7.02;100.00;98030.84;6245456;23;19950;-91
2022/12/14 13:40:22;;;;;;;;;;;;;;;7.03;100.00;98042.22;6245761;23;19915;-89
2022/12/14 13:42:56;;;;;;;;;;;;;;;7.03;100.00;98043.06;6245107;23;20303;-89
2022/12/14 13:45:27;;;;;;;;;;;;;;;7.03;100.00;98043.06;6245708;23;19915;-87
2022/12/14 13:47:54;;;;;;;;;;;;;;;7.04;100.00;98049.19;6217104;23;19911;-84
2022/12/14 13:50:40;;;;;;;;;;;;;;;7.04;100.00;98044.75;6218474;23;19919;-86
2022/12/14 13:53:28;;;;;;;;;;;;;;;7.05;100.00;98050.88;6244449;23;19986;-86
2022/12/14 13:55:57;;;;;;;;;;;;;;;7.05;100.00;98050.88;6245200;23;19998;-89
2022/12/14 13:58:43;;;;;;;;;;;;;;;7.04;100.00;98043.91;6245785;23;19918;-86
2022/12/14 14:01:12;;;;;;;;;;;;;;;7.04;100.00;98046.56;6245407;23;19918;-88
2022/12/14 14:03:38;;;;;;;;;;;;;;;7.04;100.00;98055.28;6243842;23;19912;-86
2022/12/14 14:06:24;;;;;;;;;;;;;;;7.05;100.00;98045.59;6245758;23;19919;-84
2022/12/14 14:08:50;;;;;;;;;;;;;;;7.04;100.00;98050.03;6245277;23;19919;-90
2022/12/14 14:11:24;;;;;;;;;;;;;;;7.04;100.00;98043.91;6245446;23;19915;-91
2022/12/14 14:14:00;;;;;;;;;;;;;;;7.06;100.00;98048.16;6245665;23;19918;-91
2022/12/14 14:16:35;;;;;;;;;;;;;;;7.06;100.00;98047.31;6245437;23;20228;-90
2022/12/14 14:19:06;;;;;;;;;;;;;;;7.04;100.00;98039.50;6243975;23;19915;-91
2022/12/14 14:21:38;;;;;;;;;;;;;;;7.04;100.00;98044.75;6245743;23;19912;-92
2022/12/14 14:24:17;;;;;;;;;;;;;;;7.06;100.00;98048.16;6218641;23;20086;-88
2022/12/14 14:26:56;;;;;;;;;;;;;;;7.06;100.00;98063.94;6218834;23;19993;-92
2022/12/14 14:29:23;;;;;;;;;;;;;;;7.09;100.00;98074.31;6218644;23;20001;-92
2022/12/14 14:31:53;;;;;;;;;;;;;;;7.07;100.00;98080.63;6218864;23;19938;-92
2022/12/14 14:34:32;;;;;;;;;;;;;;;7.09;100.00;98089.28;6243765;23;20324;-92
2022/12/14 14:37:15;;;;;;;;;;;;;;;7.08;100.00;98098.97;6245248;23;20235;-88
2022/12/14 14:39:40;;;;;;;;;;;;;;;7.07;100.00;98107.81;6245268;23;19918;-92
2022/12/14 14:42:14;;;;;;;;;;;;;;;7.09;100.00;98113.81;6244955;23;19951;-87
2022/12/14 14:44:42;;;;;;;;;;;;;;;7.09;100.00;98098.03;6245577;23;19911;-86
2022/12/14 14:47:20;;;;;;;;;;;;;;;7.08;100.00;98091.06;6243464;23;19938;-91
2022/12/14 14:49:51;;;;;;;;;;;;;;;7.09;100.00;98091.91;6245474;22;19979;-83
2022/12/14 14:52:43;;;;;;;;;;;;;;;7.08;100.00;98098.97;6245285;23;19962;-90
2022/12/14 14:55:26;;;;;;;;;;;;;;;7.11;100.00;98099.72;6240627;23;20343;-88
2022/12/14 14:57:57;;;;;;;;;;;;;;;7.09;100.00;98105.91;6247283;23;19915;-89
2022/12/14 15:00:22;;;;;;;;;;;;;;;7.10;100.00;98114.69;6220409;23;19991;-86
2022/12/14 15:02:49;;;;;;;;;;;;;;;7.11;100.00;98115.53;6245336;23;19950;-86
2022/12/14 15:05:22;;;;;;;;;;;;;;;7.11;100.00;98126.91;6247057;23;19946;-89
2022/12/14 15:07:47;;;;;;;;;;;;;;;7.12;100.00;98140.94;6220202;23;19965;-88
2022/12/14 15:10:25;;;;;;;;;;;;;;;7.09;100.00;98137.53;6220401;23;19912;-87
2022/12/14 15:13:05;;;;;;;;;;;;;;;;;;;;;
2022/12/14 15:15:42;;;;;;;;;;;;;;;7.12;100.00;98133.06;6246836;23;20002;-88
2022/12/14 15:18:23;;;;;;;;;;;;;;;7.13;100.00;98137.34;6245613;23;20335;-87
2022/12/14 15:20:54;;;;;;;;;;;;;;;7.13;100.00;98140.00;6220227;23;19912;-88
2022/12/14 15:23:20;;;;;;;;;;;;;;;7.13;100.00;98153.16;6246999;23;19966;-90
2022/12/14 15:25:56;;;;;;;;;;;;;;;7.13;100.00;98151.38;6246962;23;20278;-87
2022/12/14 15:28:22;;;;;;;;;;;;;;;7.12;100.00;98147.06;6247104;23;19986;-92
2022/12/14 15:30:48;;;;;;;;;;;;;;;7.12;100.00;98138.31;6246968;23;19912;-87
2022/12/14 15:33:24;;;;;;;;;;;;;;;7.13;100.00;98147.91;6245302;23;19919;-90
2022/12/14 15:35:52;;;;;;;;;;;;;;;7.13;100.00;98154.00;6220016;23;19912;-89
2022/12/14 15:38:22;;;;;;;;;;;;;;;7.15;100.00;98159.19;6246770;23;20010;-88
2022/12/14 15:40:58;;;;;;;;;;;;;;;7.14;100.00;98157.50;6220203;23;19918;-87
2022/12/14 15:43:26;;;;;;;;;;;;;;;7.15;100.00;98159.19;6246792;23;19939;-87
2022/12/14 15:45:57;;;;;;;;;;;;;;;7.14;100.00;98152.25;6219684;23;20251;-92
2022/12/14 15:48:24;;;;;;;;;;;;;;;7.14;100.00;98160.16;6245220;22;20375;-88
2022/12/14 15:51:12;;;;;;;;;;;;;;;7.14;100.00;98168.88;6246821;23;19965;-89
2022/12/14 15:53:52;;;;;;;;;;;;;;;7.15;100.00;98177.63;6227456;23;19912;-88
2022/12/14 15:56:21;;;;;;;;;;;;;;;7.14;100.00;98179.41;6220312;23;19962;-92
2022/12/14 15:58:51;;;;;;;;;;;;;;;7.15;100.00;98182.91;6246791;23;19962;-89
2022/12/14 16:01:21;;;;;;;;;;;;;;;7.15;100.00;98188.16;6246499;23;19912;-92
2022/12/14 16:03:49;;;;;;;;;;;;;;;7.15;100.00;98186.41;6218581;23;19912;-90
2022/12/14 16:06:17;;;;;;;;;;;;;;;7.17;100.00;98181.06;6245987;23;19912;-92
2022/12/14 16:08:47;;;;;;;;;;;;;;;7.16;100.00;98189.88;6246530;23;19911;-86
2022/12/14 16:11:19;;;;;;;;;;;;;;;7.17;100.00;98192.44;6246202;23;19986;-88
2022/12/14 16:13:45;;;;;;;;;;;;;;;7.18;100.00;98190.63;6219541;23;19912;-89
2022/12/14 16:16:12;;;;;;;;;;;;;;;7.15;100.00;98196.94;6246563;23;19942;-90
2022/12/14 16:18:43;;;;;;;;;;;;;;;7.16;100.00;98197.78;6242850;23;19911;-89
2022/12/14 16:21:22;;;;;;;;;;;;;;;7.15;100.00;98201.34;6246002;23;19960;-91
2022/12/14 16:23:49;;;;;;;;;;;;;;;7.15;100.00;98199.56;6219879;23;19911;-87
2022/12/14 16:26:14;;;;;;;;;;;;;;;7.17;100.00;98191.59;6245096;23;19982;-86
2022/12/14 16:28:42;;;;;;;;;;;;;;;7.16;100.00;98190.72;6246451;23;19946;-89
2022/12/14 16:31:18;;;;;;;;;;;;;;;7.18;100.00;98194.13;6245887;23;20241;-87
2022/12/14 16:33:44;;;;;;;;;;;;;;;7.16;100.00;98195.16;6244543;23;19912;-87
2022/12/14 16:36:20;;;;;;;;;;;;;;;7.17;100.00;98196.84;6246317;23;19908;-86
2022/12/14 16:38:59;;;;;;;;;;;;;;;7.17;100.00;98199.50;6219702;23;20255;-86
2022/12/14 16:41:40;;;;;;;;;;;;;;;7.19;100.00;98203.72;6246368;23;20397;-86
2022/12/14 16:44:07;;;;;;;;;;;;;;;7.18;100.00;98203.81;6245909;23;20220;-85
2022/12/14 16:46:33;;;;;;;;;;;;;;;7.19;100.00;98200.25;6219955;23;19937;-88
2022/12/14 16:49:28;;;;;;;;;;;;;;;7.19;100.00;98206.34;6244941;22;19978;-90
2022/12/14 16:52:00;;;;;;;;;;;;;;;7.18;100.00;98204.69;6218699;23;19943;-87
2022/12/14 16:54:30;;;;;;;;;;;;;;;7.20;100.00;98204.59;6219577;23;19922;-90
2022/12/14 16:56:57;;;;;;;;;;;;;;;7.19;100.00;98208.16;6247023;23;19998;-91
2022/12/14 16:59:42;;;;;;;;;;;;;;;7.19;100.00;98210.78;6247359;23;19919;-88
2022/12/14 17:02:25;;;;;;;;;;;;;;;7.19;100.00;98216.06;6193336;23;19919;-91
2022/12/14 17:04:50;;;;;;;;;;;;;;;7.19;100.00;98226.59;6247621;23;19912;-90
2022/12/14 17:07:19;;;;;;;;;;;;;;;7.19;100.00;98222.16;6220286;23;19914;-89
2022/12/14 17:09:45;;;;;;;;;;;;;;;7.17;100.00;98241.63;6220132;23;20561;-89
2022/12/14 17:12:13;;;;;;;;;;;;;;;7.16;100.00;98232.03;6219253;23;19955;-89
2022/12/14 17:14:38;;;;;;;;;;;;;;;7.16;100.00;98229.38;6218820;23;20383;-87
2022/12/14 17:17:04;;;;;;;;;;;;;;;7.16;100.00;98232.88;6218328;23;19951;-86
2022/12/14 17:19:31;;;;;;;;;;;;;;;7.16;100.00;98240.75;6219913;23;19912;-90
2022/12/14 17:21:57;;;;;;;;;;;;;;;7.19;100.00;98250.31;6219234;23;20335;-91
2022/12/14 17:24:22;;;;;;;;;;;;;;;7.18;100.00;98252.09;6218975;23;19915;-91
2022/12/14 17:26:48;;;;;;;;;;;;;;;7.16;100.00;98239.94;6219230;23;20009;-88
2022/12/14 17:29:34;;;;;;;;;;;;;;;7.17;100.00;98244.28;6219523;23;19919;-94
2022/12/14 17:32:02;;;;;;;;;;;;;;;7.17;100.00;98239.00;6245421;23;20336;-88
2022/12/14 17:34:28;;;;;;;;;;;;;;;7.17;100.00;98228.47;6219367;23;19912;-89
2022/12/14 17:36:55;;;;;;;;;;;;;;;7.17;100.00;98228.47;6218616;23;19943;-85
2022/12/14 17:39:27;;;;;;;;;;;;;;;7.19;100.00;98226.59;6219025;23;19915;-90
2022/12/14 17:41:53;;;;;;;;;;;;;;;7.18;100.00;98227.50;6219947;23;19918;-89
2022/12/14 17:44:19;;;;;;;;;;;;;;;7.18;100.00;98227.50;6245413;23;19911;-89
2022/12/14 17:46:47;;;;;;;;;;;;;;;7.18;100.00;98228.38;6246398;23;19911;-86
2022/12/14 17:49:13;;;;;;;;;;;;;;;7.19;100.00;98234.50;6243860;22;19916;-88
2022/12/14 17:51:40;;;;;;;;;;;;;;;7.19;100.00;98231.84;6219040;23;19912;-92
2022/12/14 17:54:12;;;;;;;;;;;;;;;7.20;100.00;98238.84;6219634;23;19934;-92
2022/12/14 17:56:40;;;;;;;;;;;;;;;7.20;100.00;98238.84;6220003;23;19919;-91
2022/12/14 17:59:05;;;;;;;;;;;;;;;7.16;100.00;98235.50;6219460;23;19967;-87
2022/12/14 18:01:30;;;;;;;;;;;;;;;7.18;100.00;98245.97;6219431;23;19916;-87
2022/12/14 18:03:56;;;;;;;;;;;;;;;7.16;100.00;98251.31;6243827;23;19911;-87
2022/12/14 18:06:21;;;;;;;;;;;;;;;7.16;100.00;98247.81;6217411;23;20588;-89
2022/12/14 18:09:03;;;;;;;;;;;;;;;7.18;100.00;98253.84;6211435;23;19983;-88
2022/12/14 18:11:29;;;;;;;;;;;;;;;7.17;100.00;98246.91;6215482;23;20341;-88
2022/12/14 18:13:57;;;;;;;;;;;;;;;7.17;100.00;98254.81;6245635;23;20002;-88
2022/12/14 18:16:23;;;;;;;;;;;;;;;7.18;100.00;98252.09;6244979;23;20281;-88
2022/12/14 18:18:48;;;;;;;;;;;;;;;7.18;100.00;98252.09;6243516;23;19912;-87
2022/12/14 18:21:24;;;;;;;;;;;;;;;7.18;100.00;98248.59;6216015;23;20339;-89
2022/12/14 18:23:50;;;;;;;;;;;;;;;7.17;100.00;98253.00;6217403;23;19911;-87
2022/12/14 18:26:21;;;;;;;;;;;;;;;7.17;100.00;98254.81;6243969;23;19990;-88
2022/12/14 18:28:47;;;;;;;;;;;;;;;7.18;100.00;98254.72;6244297;23;19934;-87
2022/12/14 18:31:39;;;;;;;;;;;;;;;7.18;100.00;98261.75;6245127;23;19934;-85
2022/12/14 18:34:06;;;;;;;;;;;;;;;7.18;100.00;98267.03;6237695;23;19938;-88
2022/12/14 18:36:32;;;;;;;;;;;;;;;7.19;100.00;98274.00;6243461;23;19908;-88
2022/12/14 18:38:59;;;;;;;;;;;;;;;7.17;100.00;98275.88;6217835;23;19974;-87
2022/12/14 18:41:36;;;;;;;;;;;;;;;7.18;100.00;98267.03;6217488;23;20726;-87
2022/12/14 18:44:12;;;;;;;;;;;;;;;;;;;;;
2022/12/14 18:46:40;;;;;;;;;;;;;;;7.17;100.00;98271.47;6244474;23;19994;-88
2022/12/14 18:49:05;;;;;;;;;;;;;;;7.18;100.00;98270.53;6215550;23;19920;-87
2022/12/14 18:51:31;;;;;;;;;;;;;;;7.18;100.00;98275.81;6242003;23;19915;-88
2022/12/14 18:53:57;;;;;;;;;;;;;;;7.19;100.00;98280.13;6244158;23;19911;-86
2022/12/14 18:56:34;;;;;;;;;;;;;;;;;;;;;
2022/12/14 18:58:59;;;;;;;;;;;;;;;7.20;100.00;98286.25;6227878;23;19999;-88
2022/12/14 19:01:32;;;;;;;;;;;;;;;7.19;100.00;98295.09;6243194;23;19951;-87
2022/12/14 19:04:15;;;;;;;;;;;;;;;;;;;;;
2022/12/14 19:06:46;;;;;;;;;;;;;;;7.19;100.00;98297.72;6245028;23;19975;-88
2022/12/14 19:09:12;;;;;;;;;;;;;;;7.18;100.00;98298.63;6217695;23;19965;-87
2022/12/14 19:11:40;;;;;;;;;;;;;;;7.18;100.00;98309.19;6244246;23;19911;-85
2022/12/14 19:14:06;;;;;;;;;;;;;;;7.18;100.00;98306.53;6242910;23;20247;-87
2022/12/14 19:16:31;;;;;;;;;;;;;;;7.19;100.00;98300.34;6217128;23;19919;-86
2022/12/14 19:18:59;;;;;;;;;;;;;;;7.17;100.00;98310.13;6243164;23;19912;-88
2022/12/14 19:21:25;;;;;;;;;;;;;;;7.19;100.00;98324.06;6244661;23;20517;-85
2022/12/14 19:23:50;;;;;;;;;;;;;;;7.24;100.00;98330.81;6245204;23;19998;-89
2022/12/14 19:26:15;;;;;;;;;;;;;;;7.27;100.00;98330.66;6217727;23;19987;-88
2022/12/14 19:28:41;;;;;;;;;;;;;;;7.47;100.00;98310.28;6244920;23;19912;-89
2022/12/14 19:31:08;;;;;;;;;;;;;;;7.36;100.00;98323.19;6245182;23;20285;-85
2022/12/14 19:33:33;;;;;;;;;;;;;;;7.33;100.00;98332.09;6243743;23;20308;-88
2022/12/14 19:35:59;;;;;;;;;;;;;;;7.33;100.00;98329.47;6217333;23;19918;-88
2022/12/14 19:38:24;;;;;;;;;;;;;;;7.33;100.00;98318.91;6217846;23;19954;-87
2022/12/14 19:41:26;;;;;;;;;;;;;;;;;;;;;
2022/12/14 19:44:23;;;;;;;;;;;;;;;7.36;100.00;98318.75;6209444;23;19983;-89
2022/12/14 19:46:50;;;;;;;;;;;;;;;7.38;100.00;98321.31;6194053;23;19911;-86
2022/12/14 19:49:15;;;;;;;;;;;;;;;7.41;100.00;98319.34;6244098;22;19927;-87
2022/12/14 19:51:41;;;;;;;;;;;;;;;7.40;100.00;98315.03;6219929;23;19957;-87
2022/12/14 19:54:39;;;;;;;;;;;;;;;;;;;;;
2022/12/14 19:57:05;;;;;;;;;;;;;;;7.40;100.00;98328.22;6185346;23;19959;-86
2022/12/14 19:59:38;;;;;;;;;;;;;;;7.42;100.00;98330.78;6246014;23;19943;-90
2022/12/14 20:02:09;;;;;;;;;;;;;;;7.41;100.00;98322.00;6244757;23;20284;-86
2022/12/14 20:04:43;;;;;;;;;;;;;;;7.41;100.00;98322.00;6219585;23;19999;-88